Time;durP1;ratioP1;P1;durP2;ratioP2;P2;SDS_P1;SDS_P2;PMS_P1;PMS_P2;Temp;Humidity;BMP_temperature;BMP_pressure;BME280_temperature;BME280_humidity;BME280_pressure;Samples;Min_cycle;Max_cycle;Signal;HPM_P1;HPM_P2
2021/04/01 00:00:38;;;;;;;8.80;5.97;;;;;;;;;;5055177;28;20395;-47
2021/04/01 00:03:05;;;;;;;9.35;6.03;;;;;;;;;;5073576;28;20387;-48
2021/04/01 00:05:31;;;;;;;12.07;6.22;;;;;;;;;;5055473;28;20476;-47
2021/04/01 00:07:57;;;;;;;9.95;5.68;;;13.00;99.90;;;;;;5073568;28;20448;-48
2021/04/01 00:10:38;;;;;;;8.60;5.22;;;12.60;99.90;;;;;;5072026;28;20071;-48
2021/04/01 00:13:05;;;;;;;7.53;5.20;;;12.40;99.90;;;;;;5073581;28;20075;-47
2021/04/01 00:15:31;;;;;;;6.47;4.43;;;;;;;;;;5073282;28;20115;-47
2021/04/01 00:17:57;;;;;;;7.47;4.72;;;11.90;99.90;;;;;;5073258;28;20045;-47
2021/04/01 00:20:23;;;;;;;9.63;5.07;;;11.90;99.90;;;;;;5054943;28;20028;-47
2021/04/01 00:22:48;;;;;;;7.38;4.80;;;12.00;99.90;;;;;;5073232;28;20054;-47
2021/04/01 00:25:16;;;;;;;7.13;4.50;;;12.00;99.90;;;;;;5054786;28;20118;-47
2021/04/01 00:27:42;;;;;;;10.52;5.30;;;12.10;99.90;;;;;;5073140;28;20025;-47
2021/04/01 00:30:27;;;;;;;8.95;4.97;;;12.20;99.90;;;;;;5054857;28;20067;-47
2021/04/01 00:32:54;;;;;;;8.93;4.30;;;;;;;;;;5051152;28;20039;-50
2021/04/01 00:35:20;;;;;;;10.15;4.43;;;;;;;;;;5051118;28;20037;-47
2021/04/01 00:37:45;;;;;;;8.13;4.75;;;11.20;99.90;;;;;;5051111;28;20044;-47
2021/04/01 00:40:12;;;;;;;11.20;4.25;;;11.20;99.90;;;;;;5051217;28;20021;-47
2021/04/01 00:42:39;;;;;;;5.97;4.30;;;;;;;;;;5005190;28;20120;-47
2021/04/01 00:45:12;;;;;;;8.05;4.32;;;11.60;99.90;;;;;;5055355;28;20507;-48
2021/04/01 00:47:43;;;;;;;8.15;4.45;;;11.80;99.90;;;;;;5055022;28;20037;-47
2021/04/01 00:50:11;;;;;;;9.43;5.20;;;;;;;;;;5054962;28;20449;-47
2021/04/01 00:52:37;;;;;;;9.52;5.30;;;12.00;99.90;;;;;;5055316;28;20098;-47
2021/04/01 00:55:07;;;;;;;7.93;4.95;;;12.10;99.90;;;;;;5054832;28;20029;-47
2021/04/01 00:57:34;;;;;;;8.10;5.30;;;12.20;99.90;;;;;;5021954;28;20029;-47
2021/04/01 01:00:00;;;;;;;11.63;5.38;;;;;;;;;;5054829;28;20025;-47
2021/04/01 01:02:26;;;;;;;8.65;5.03;;;12.20;99.90;;;;;;5021893;28;20043;-47
2021/04/01 01:04:54;;;;;;;12.68;5.63;;;12.10;99.90;;;;;;5072305;28;20037;-48
2021/04/01 01:07:20;;;;;;;14.45;7.28;;;12.10;99.90;;;;;;5076788;28;20016;-47
2021/04/01 01:09:46;;;;;;;10.23;6.28;;;;;;;;;;5058128;28;20106;-47
2021/04/01 01:12:12;;;;;;;14.00;7.32;;;12.30;99.90;;;;;;5076607;28;20031;-47
2021/04/01 01:14:37;;;;;;;11.85;6.45;;;12.30;99.90;;;;;;5076604;28;20020;-48
2021/04/01 01:17:04;;;;;;;10.70;6.18;;;12.20;99.90;;;;;;5058056;28;20043;-48
2021/04/01 01:19:39;;;;;;;11.85;7.40;;;11.90;99.90;;;;;;5058122;28;20044;-47
2021/04/01 01:22:08;;;;;;;10.73;6.60;;;11.70;99.90;;;;;;5076390;28;20513;-47
2021/04/01 01:24:37;;;;;;;10.02;6.68;;;11.60;99.90;;;;;;5058208;28;20043;-48
2021/04/01 01:27:04;;;;;;;11.10;6.35;;;11.50;99.90;;;;;;5076502;28;20031;-47
2021/04/01 01:29:31;;;;;;;11.63;6.00;;;11.50;99.90;;;;;;5076316;28;20036;-47
2021/04/01 01:31:57;;;;;;;9.07;5.32;;;11.40;99.90;;;;;;5076447;28;20081;-47
2021/04/01 01:34:23;;;;;;;7.70;4.53;;;11.50;99.90;;;;;;5076289;28;20063;-48
2021/04/01 01:36:49;;;;;;;8.13;4.82;;;11.50;99.90;;;;;;5076102;28;20402;-48
2021/04/01 01:39:15;;;;;;;9.10;5.30;;;11.50;99.90;;;;;;5024900;28;20360;-47
2021/04/01 01:41:40;;;;;;;14.35;5.57;;;11.60;99.90;;;;;;5076035;28;20036;-48
2021/04/01 01:44:07;;;;;;;9.27;6.38;;;;;;;;;;5076567;28;20467;-47
2021/04/01 01:46:32;;;;;;;10.13;5.75;;;11.90;99.90;;;;;;5057561;28;20039;-47
2021/04/01 01:48:59;;;;;;;10.77;6.68;;;11.90;99.90;;;;;;5075895;28;20115;-47
2021/04/01 01:51:27;;;;;;;11.85;6.57;;;12.00;99.90;;;;;;5076011;28;20036;-47
2021/04/01 01:53:53;;;;;;;10.50;6.45;;;12.00;99.90;;;;;;5075204;28;20498;-47
2021/04/01 01:56:25;;;;;;;12.40;5.75;;;12.00;99.90;;;;;;5024053;28;20033;-47
2021/04/01 01:58:52;;;;;;;10.83;6.30;;;12.00;99.90;;;;;;5075894;28;20028;-47
2021/04/01 02:01:21;;;;;;;9.68;5.88;;;12.00;99.90;;;;;;5075810;28;20031;-47
2021/04/01 02:03:46;;;;;;;10.02;5.10;;;12.00;99.90;;;;;;5076004;28;20432;-47
2021/04/01 02:06:13;;;;;;;9.65;5.38;;;12.00;99.90;;;;;;5057299;28;20112;-47
2021/04/01 02:08:39;;;;;;;10.43;5.70;;;12.00;99.90;;;;;;5075592;28;20112;-48
2021/04/01 02:11:06;;;;;;;9.95;5.38;;;12.00;99.90;;;;;;5057198;28;20115;-47
2021/04/01 02:13:33;;;;;;;9.95;5.18;;;11.90;99.90;;;;;;5057373;28;20040;-47
2021/04/01 02:15:59;;;;;;;9.85;5.05;;;11.80;99.90;;;;;;5075585;28;20040;-47
2021/04/01 02:18:28;;;;;;;12.30;5.55;;;11.80;99.90;;;;;;5056988;28;20407;-47
2021/04/01 02:20:56;;;;;;;9.60;5.25;;;11.90;99.90;;;;;;5075476;28;20464;-47
2021/04/01 02:23:25;;;;;;;10.55;5.68;;;11.90;99.90;;;;;;5075160;28;20384;-47
2021/04/01 02:25:53;;;;;;;10.30;5.32;;;11.90;99.90;;;;;;5075135;28;20060;-47
2021/04/01 02:28:21;;;;;;;8.80;5.65;;;11.90;99.90;;;;;;5075300;28;20028;-47
2021/04/01 02:30:50;;;;;;;11.38;5.82;;;12.00;99.90;;;;;;5056615;28;20037;-47
2021/04/01 02:33:19;;;;;;;11.07;6.03;;;12.00;99.90;;;;;;5075434;28;20414;-47
2021/04/01 02:35:45;;;;;;;9.57;5.55;;;11.80;99.90;;;;;;5074976;28;20475;-47
2021/04/01 02:38:11;;;;;;;9.90;5.47;;;11.70;99.90;;;;;;5075472;28;20024;-47
2021/04/01 02:40:39;;;;;;;9.57;5.72;;;11.60;99.90;;;;;;5075179;28;20345;-47
2021/04/01 02:43:07;;;;;;;10.90;5.63;;;11.70;99.90;;;;;;5056795;28;20047;-47
2021/04/01 02:45:34;;;;;;;8.52;4.63;;;11.70;99.90;;;;;;5052804;28;20037;-47
2021/04/01 02:48:00;;;;;;;8.60;5.07;;;11.50;99.90;;;;;;5052766;28;20075;-47
2021/04/01 02:50:26;;;;;;;7.93;4.88;;;11.50;99.90;;;;;;5052619;28;20045;-47
2021/04/01 02:52:52;;;;;;;6.13;4.28;;;11.20;99.90;;;;;;5019491;28;20040;-47
2021/04/01 02:55:18;;;;;;;6.75;4.57;;;11.30;99.90;;;;;;5019676;28;20500;-47
2021/04/01 02:57:44;;;;;;;5.45;3.95;;;11.40;99.90;;;;;;5052689;28;20029;-48
2021/04/01 03:00:15;;;;;;;6.35;3.83;;;11.20;99.90;;;;;;5052760;28;20518;-48
2021/04/01 03:02:50;;;;;;;5.03;3.67;;;11.30;99.90;;;;;;4987993;28;20127;-48
2021/04/01 03:05:16;;;;;;;6.97;4.03;;;11.30;99.90;;;;;;5052384;28;20475;-47
2021/04/01 03:07:42;;;;;;;5.60;3.38;;;11.50;99.90;;;;;;5052447;28;20071;-47
2021/04/01 03:10:10;;;;;;;5.25;3.28;;;11.40;99.90;;;;;;5052527;28;20392;-47
2021/04/01 03:12:36;;;;;;;5.15;3.35;;;11.50;99.90;;;;;;5052242;28;20090;-47
2021/04/01 03:15:03;;;;;;;6.15;3.70;;;11.40;99.90;;;;;;5052205;28;20025;-47
2021/04/01 03:17:30;;;;;;;5.38;3.38;;;11.40;99.90;;;;;;5072237;28;20055;-47
2021/04/01 03:19:56;;;;;;;6.50;3.78;;;11.40;99.90;;;;;;5074273;28;20032;-47
2021/04/01 03:22:21;;;;;;;6.82;4.50;;;11.20;99.90;;;;;;5074247;28;20024;-47
2021/04/01 03:24:47;;;;;;;8.90;4.90;;;11.10;99.90;;;;;;5022679;28;20040;-47
2021/04/01 03:27:13;;;;;;;5.22;3.40;;;11.00;99.90;;;;;;5074192;28;20115;-47
2021/04/01 03:29:38;;;;;;;5.45;3.53;;;11.00;99.90;;;;;;5055752;28;20036;-47
2021/04/01 03:32:04;;;;;;;5.95;3.33;;;10.90;99.90;;;;;;5074037;28;20120;-47
2021/04/01 03:34:30;;;;;;;4.85;3.03;;;11.10;99.90;;;;;;5022386;28;20387;-47
2021/04/01 03:36:56;;;;;;;7.78;3.20;;;;;;;;;;5073977;28;20028;-47
2021/04/01 03:39:22;;;;;;;5.00;2.78;;;10.70;99.90;;;;;;5056159;28;20098;-47
2021/04/01 03:41:48;;;;;;;6.10;3.10;;;10.70;99.90;;;;;;5055372;28;20032;-47
2021/04/01 03:44:14;;;;;;;4.55;2.80;;;;;;;;;;5073845;28;20024;-47
2021/04/01 03:46:40;;;;;;;6.28;3.40;;;10.40;99.90;;;;;;5055383;28;20040;-47
2021/04/01 03:49:06;;;;;;;7.05;3.15;;;10.30;99.90;;;;;;5055333;28;20029;-47
2021/04/01 03:51:32;;;;;;;4.72;3.10;;;10.30;99.90;;;;;;5055246;28;20041;-47
2021/04/01 03:53:58;;;;;;;4.63;2.80;;;10.60;99.90;;;;;;5073885;28;20029;-47
2021/04/01 03:56:24;;;;;;;4.15;2.85;;;10.80;99.90;;;;;;5073621;28;20033;-47
2021/04/01 03:58:57;;;;;;;4.25;2.83;;;10.90;99.90;;;;;;5073870;28;20028;-47
2021/04/01 04:04:22;;;;;;;4.85;3.28;;;;;;;;;;5073630;28;20032;-50
2021/04/01 04:09:48;;;;;;;5.25;3.15;;;10.60;99.90;;;;;;5073722;28;20035;-50
2021/04/01 04:17:08;;;;;;;5.20;3.35;;;10.80;99.90;;;;;;5072759;28;20616;-50
2021/04/01 04:19:34;;;;;;;7.53;4.20;;;10.60;99.90;;;;;;5073387;28;20033;-49
2021/04/01 04:22:00;;;;;;;5.30;3.25;;;10.40;99.90;;;;;;5073307;28;20159;-50
2021/04/01 04:24:27;;;;;;;4.10;2.90;;;10.60;99.90;;;;;;5054784;28;20123;-50
2021/04/01 04:26:53;;;;;;;7.93;3.92;;;10.80;99.90;;;;;;5054875;28;20042;-50
2021/04/01 04:29:19;;;;;;;6.70;4.30;;;10.80;99.90;;;;;;5054750;28;20044;-47
2021/04/01 04:31:44;;;;;;;7.65;4.45;;;10.90;99.90;;;;;;5070880;28;20395;-47
2021/04/01 04:34:10;;;;;;;5.93;3.92;;;11.00;99.90;;;;;;5073188;28;20082;-47
2021/04/01 04:36:36;;;;;;;6.45;4.00;;;10.90;99.90;;;;;;5054534;28;20077;-47
2021/04/01 04:39:02;;;;;;;7.35;3.85;;;10.60;99.90;;;;;;5054927;28;20040;-47
2021/04/01 04:41:28;;;;;;;5.20;3.80;;;10.60;99.90;;;;;;5073160;28;20036;-47
2021/04/01 04:43:54;;;;;;;7.70;3.85;;;10.60;99.90;;;;;;5054842;28;20029;-47
2021/04/01 04:46:20;;;;;;;7.03;3.90;;;10.50;99.90;;;;;;5054563;28;20384;-47
2021/04/01 04:48:45;;;;;;;6.90;4.30;;;10.40;99.90;;;;;;5072988;28;20031;-47
2021/04/01 04:51:11;;;;;;;5.60;4.22;;;10.30;99.90;;;;;;5071779;28;20434;-47
2021/04/01 04:53:37;;;;;;;6.82;4.05;;;10.30;99.90;;;;;;5054656;28;20044;-49
2021/04/01 05:01:12;;;;;;;7.68;3.78;;;10.20;99.90;;;;;;5056170;28;20036;-48
2021/04/01 05:06:42;;;;;;;8.63;3.80;;;10.00;99.90;;;;;;5054280;28;20039;-48
2021/04/01 05:09:09;;;;;;;6.85;4.43;;;10.00;99.90;;;;;;5062322;28;20033;-48
2021/04/01 05:11:34;;;;;;;6.82;3.97;;;9.80;99.90;;;;;;5052899;28;20037;-48
2021/04/01 05:14:01;;;;;;;7.53;3.60;;;9.70;99.90;;;;;;5052811;28;20025;-48
2021/04/01 05:16:27;;;;;;;6.85;4.05;;;9.70;99.90;;;;;;5034301;28;20044;-48
2021/04/01 05:18:54;;;;;;;7.38;3.88;;;9.60;99.90;;;;;;5063323;28;20056;-48
2021/04/01 05:21:23;;;;;;;5.20;3.47;;;9.70;99.90;;;;;;5052946;28;20411;-50
2021/04/01 05:23:51;;;;;;;6.78;4.18;;;9.70;99.90;;;;;;5072777;28;20036;-50
2021/04/01 05:28:50;;;;;;;6.63;4.15;;;9.70;99.90;;;;;;5073804;28;20498;-50
2021/04/01 05:31:18;;;;;;;6.68;4.43;;;9.50;99.90;;;;;;5076137;28;20086;-50
2021/04/01 05:33:46;;;;;;;8.15;5.07;;;9.60;99.90;;;;;;5056457;28;20041;-48
2021/04/01 05:36:16;;;;;;;7.13;4.72;;;9.90;99.90;;;;;;5057768;28;20041;-48
2021/04/01 05:38:42;;;;;;;8.88;4.72;;;10.20;99.90;;;;;;5076265;28;20028;-47
2021/04/01 05:41:10;;;;;;;7.32;4.88;;;10.50;99.90;;;;;;5024483;28;20058;-48
2021/04/01 05:43:40;;;;;;;6.53;4.90;;;10.70;99.90;;;;;;5076173;28;20024;-48
2021/04/01 05:46:25;;;;;;;7.20;4.63;;;10.90;99.90;;;;;;5075873;28;20032;-48
2021/04/01 05:49:18;;;;;;;7.97;4.35;;;11.00;99.90;;;;;;5074158;28;20040;-48
2021/04/01 06:03:13;;;;;;;8.80;5.20;;;11.70;99.90;;;;;;5046022;28;20427;-49
2021/04/01 06:05:42;;;;;;;10.48;6.28;;;11.90;99.90;;;;;;5074176;28;20041;-48
2021/04/01 06:08:17;;;;;;;8.32;5.38;;;11.90;99.90;;;;;;5075835;28;20033;-44
2021/04/01 06:10:44;;;;;;;7.80;4.95;;;12.00;99.90;;;;;;5075769;28;20063;-49
2021/04/01 06:13:14;;;;;;;8.38;5.07;;;;;;;;;;5075216;28;20039;-50
2021/04/01 06:15:48;;;;;;;9.82;5.43;;;12.10;99.90;;;;;;5075391;28;20025;-48
2021/04/01 06:18:22;;;;;;;8.43;5.35;;;12.00;99.90;;;;;;5075276;28;20044;-50
2021/04/01 06:20:51;;;;;;;9.93;5.80;;;12.20;99.90;;;;;;5075335;28;20033;-50
2021/04/01 06:23:30;;;;;;;7.40;5.45;;;12.50;99.90;;;;;;5075313;28;20029;-50
2021/04/01 06:25:58;;;;;;;8.93;5.93;;;12.90;99.90;;;;;;5075251;28;20020;-49
2021/04/01 06:29:12;;;;;;;8.02;6.05;;;13.00;99.90;;;;;;5056215;28;20039;-48
2021/04/01 06:31:42;;;;;;;11.35;6.90;;;13.00;99.90;;;;;;5072257;28;20043;-49
2021/04/01 06:34:08;;;;;;;11.23;6.75;;;;;;;;;;5056603;28;20036;-49
2021/04/01 06:36:37;;;;;;;11.85;6.97;;;13.30;99.90;;;;;;5074851;28;20035;-49
2021/04/01 06:39:03;;;;;;;13.18;7.25;;;13.60;99.90;;;;;;5074869;28;20463;-46
2021/04/01 06:41:31;;;;;;;11.30;6.90;;;;;;;;;;5075050;28;20483;-48
2021/04/01 06:44:15;;;;;;;11.23;6.53;;;13.90;99.90;;;;;;5075198;28;20060;-48
2021/04/01 06:46:44;;;;;;;12.10;7.25;;;13.90;99.90;;;;;;5075024;28;20035;-49
2021/04/01 06:51:55;;;;;;;12.70;7.25;;;14.20;99.90;;;;;;5074809;28;20031;-48
2021/04/01 06:54:34;;;;;;;;;;;14.40;99.90;;;;;;5075453;28;20402;-49
2021/04/01 07:00:12;;;;;;;12.32;7.10;;;;;;;;;;5072366;28;20364;-48
2021/04/01 07:02:42;;;;;;;12.77;8.02;;;;;;;;;;5056768;28;20036;-49
2021/04/01 07:05:20;;;;;;;10.98;6.68;;;15.30;99.90;;;;;;5074580;28;20035;-48
2021/04/01 07:07:52;;;;;;;8.95;6.72;;;;;;;;;;5074720;28;20040;-46
2021/04/01 07:10:26;;;;;;;14.68;7.00;;;;;;;;;;5074585;28;20040;-48
2021/04/01 07:12:54;;;;;;;13.00;7.63;;;;;;;;;;5056851;28;20094;-47
2021/04/01 07:15:24;;;;;;;10.70;7.22;;;;;;;;;;5074465;28;20028;-47
2021/04/01 07:17:57;;;;;;;11.25;6.70;;;;;;;;;;5071243;28;20131;-48
2021/04/01 07:48:11;;;;;;;10.20;5.80;;;19.30;99.90;;;;;;5073903;28;20063;-48
2021/04/01 07:50:38;;;;;;;9.48;5.50;;;;;;;;;;5071268;28;20041;-48
2021/04/01 07:53:05;;;;;;;7.70;5.90;;;19.90;99.90;;;;;;5073925;28;20383;-48
2021/04/01 07:55:55;;;;;;;10.50;5.30;;;20.10;99.90;;;;;;5055135;28;20047;-48
2021/04/01 08:03:58;;;;;;;11.73;5.95;;;;;;;;;;5009970;28;20436;-48
2021/04/01 08:06:29;;;;;;;8.93;5.70;;;21.20;99.90;;;;;;5011274;28;20562;-49
2021/04/01 08:08:59;;;;;;;9.38;5.95;;;20.90;99.90;;;;;;5011610;28;20049;-49
2021/04/01 08:11:30;;;;;;;8.15;4.80;;;21.10;99.90;;;;;;5011581;28;20029;-53
2021/04/01 08:14:18;;;;;;;12.93;5.78;;;20.90;99.90;;;;;;5011632;28;20058;-50
2021/04/01 08:16:56;;;;;;;8.85;5.20;;;21.20;99.90;;;;;;5011444;28;20037;-49
2021/04/01 08:19:24;;;;;;;8.25;5.85;;;;;;;;;;5011283;28;20053;-53
2021/04/01 08:21:52;;;;;;;7.10;5.25;;;22.10;99.90;;;;;;5028008;28;20050;-49
2021/04/01 08:24:29;;;;;;;7.78;5.15;;;22.10;99.90;;;;;;5011373;28;20030;-51
2021/04/01 08:30:27;;;;;;;8.50;5.35;;;22.60;99.90;;;;;;5011489;28;20038;-47
2021/04/01 08:35:18;;;;;;;7.38;4.82;;;;;;;;;;4952814;28;20101;-47
2021/04/01 08:38:00;;;;;;;8.93;5.30;;;;;;;;;;4949436;29;20035;-50
2021/04/01 08:40:26;;;;;;;11.30;5.80;;;;;;;;;;4945089;28;20057;-50
2021/04/01 08:42:55;;;;;;;6.80;4.60;;;;;;;;;;4971974;28;20605;-51
2021/04/01 08:45:32;;;;;;;7.63;5.15;;;;;;;;;;4972413;28;20054;-50
2021/04/01 08:48:17;;;;;;;8.38;4.70;;;;;;;;;;4972404;28;20043;-50
2021/04/01 08:51:09;;;;;;;11.10;6.35;;;;;;;;;;4972157;28;20051;-50
2021/04/01 08:53:46;;;;;;;7.68;5.18;;;;;;;;;;4972189;28;20125;-50
2021/04/01 08:56:24;;;;;;;7.78;4.93;;;;;;;;;;4972001;28;20125;-50
2021/04/01 08:59:01;;;;;;;7.07;4.78;;;;;;;;;;4972162;28;20042;-50
2021/04/01 09:01:33;;;;;;;8.20;5.35;;;25.40;86.10;;;;;;4972322;28;20077;-51
2021/04/01 09:03:59;;;;;;;;;;;;;;;;;;5007903;28;20096;-50
2021/04/01 09:06:27;;;;;;;7.65;4.70;;;;;;;;;;5015058;28;19917;-50
2021/04/01 09:09:14;;;;;;;7.72;4.70;;;25.80;83.10;;;;;;4999419;28;20045;-50
2021/04/01 09:14:18;;;;;;;12.00;4.07;;;25.90;84.60;;;;;;5056810;28;20043;-50
2021/04/01 09:16:52;;;;;;;5.70;3.80;;;;;;;;;;5056764;28;20033;-50
2021/04/01 09:19:27;;;;;;;6.65;3.22;;;26.30;78.30;;;;;;5056208;28;20114;-50
2021/04/01 09:21:53;;;;;;;6.68;3.80;;;26.30;78.60;;;;;;5054591;28;20037;-50
2021/04/01 09:24:27;;;;;;;4.35;3.30;;;26.20;78.60;;;;;;5056728;28;20028;-50
2021/04/01 09:26:53;;;;;;;5.40;3.60;;;26.50;78.20;;;;;;5056223;28;20484;-50
2021/04/01 09:29:19;;;;;;;6.35;4.05;;;26.80;76.70;;;;;;5056272;28;20092;-50
2021/04/01 09:31:55;;;;;;;5.78;3.47;;;26.60;75.50;;;;;;5056427;28;20060;-50
2021/04/01 09:34:23;;;;;;;3.50;2.97;;;26.00;77.20;;;;;;5056336;28;20032;-50
2021/04/01 09:36:49;;;;;;;4.07;2.90;;;25.60;90.80;;;;;;5065159;28;20492;-53
2021/04/01 09:41:51;;;;;;;4.25;3.08;;;26.40;84.90;;;;;;5075049;28;20547;-51
2021/04/01 09:44:17;;;;;;;5.82;2.70;;;;;;;;;;5075973;28;20032;-53
2021/04/01 09:46:56;;;;;;;4.85;3.55;;;;;;;;;;5074981;28;20052;-53
2021/04/01 09:49:28;;;;;;;5.47;2.70;;;27.40;86.30;;;;;;5075598;28;20102;-53
2021/04/01 09:51:54;;;;;;;5.03;2.50;;;27.70;76.20;;;;;;5053504;28;20516;-53
2021/04/01 09:54:21;;;;;;;4.55;2.80;;;;;;;;;;5036734;28;20036;-46
2021/04/01 09:56:56;;;;;;;5.75;3.15;;;;;;;;;;5053303;28;20091;-47
2021/04/01 09:59:49;;;;;;;5.10;2.97;;;27.20;70.80;;;;;;5053752;28;20044;-48
2021/04/01 10:02:29;;;;;;;4.95;2.90;;;27.60;72.20;;;;;;5053182;28;20051;-46
2021/04/01 10:05:02;;;;;;;5.18;3.35;;;27.60;71.20;;;;;;5035377;28;20063;-52
2021/04/01 10:07:32;;;;;;;4.85;2.90;;;27.10;70.80;;;;;;5053340;28;20051;-52
2021/04/01 10:09:59;;;;;;;3.97;2.78;;;27.10;71.70;;;;;;5052977;28;20482;-52
2021/04/01 10:12:38;;;;;;;4.68;2.80;;;26.70;70.30;;;;;;5034213;28;20037;-51
2021/04/01 10:15:11;;;;;;;4.40;2.80;;;;;;;;;;5039453;28;20045;-50
2021/04/01 10:17:42;;;;;;;4.65;2.83;;;27.60;71.30;;;;;;5036773;28;20429;-50
2021/04/01 10:20:09;;;;;;;4.25;2.90;;;;;;;;;;5018751;28;20385;-51
2021/04/01 10:22:40;;;;;;;7.75;4.45;;;27.90;86.20;;;;;;5046618;28;20041;-50
2021/04/01 10:28:02;;;;;;;5.57;3.72;;;27.30;67.70;;;;;;5048876;28;20044;-50
2021/04/01 10:30:30;;;;;;;4.15;2.67;;;;;;;;;;5035139;28;20452;-51
2021/04/01 10:33:02;;;;;;;5.72;3.30;;;;;;;;;;5034413;28;20026;-50
2021/04/01 10:35:29;;;;;;;4.82;2.95;;;;;;;;;;5034101;28;20071;-50
2021/04/01 10:37:57;;;;;;;4.05;2.63;;;28.60;64.90;;;;;;5032952;28;20045;-50
2021/04/01 10:40:23;;;;;;;3.78;2.78;;;28.90;65.50;;;;;;5032184;28;20041;-50
2021/04/01 10:43:01;;;;;;;5.05;2.78;;;28.30;65.70;;;;;;5017733;28;20034;-51
2021/04/01 10:45:39;;;;;;;3.40;2.45;;;27.90;64.80;;;;;;5015147;28;20037;-50
2021/04/01 10:48:17;;;;;;;5.43;2.70;;;27.50;66.20;;;;;;5014803;28;20401;-50
2021/04/01 10:50:43;;;;;;;4.50;2.70;;;27.40;66.10;;;;;;5015187;28;20560;-50
2021/04/01 10:53:23;;;;;;;4.75;3.15;;;27.60;66.10;;;;;;5013085;28;20038;-50
2021/04/01 10:55:50;;;;;;;2.97;2.40;;;27.60;65.60;;;;;;5014680;28;20040;-51
2021/04/01 10:58:17;;;;;;;4.38;2.85;;;27.90;65.70;;;;;;5015094;28;20029;-50
2021/04/01 11:00:56;;;;;;;3.63;2.50;;;28.60;76.20;;;;;;5015110;28;20056;-50
2021/04/01 11:03:29;;;;;;;4.88;3.00;;;28.60;65.20;;;;;;5014820;28;20056;-50
2021/04/01 11:05:57;;;;;;;5.20;3.03;;;28.60;66.30;;;;;;5014972;28;20168;-51
2021/04/01 11:08:25;;;;;;;4.22;3.33;;;28.70;65.10;;;;;;5014994;28;20029;-50
2021/04/01 11:11:00;;;;;;;3.78;2.88;;;28.60;64.70;;;;;;5014450;28;20034;-50
2021/04/01 11:13:33;;;;;;;4.70;2.47;;;28.00;64.20;;;;;;4996438;28;20045;-50
2021/04/01 11:16:03;;;;;;;9.32;3.30;;;28.10;65.30;;;;;;5014683;28;20117;-50
2021/04/01 11:18:30;;;;;;;4.60;3.08;;;28.70;64.80;;;;;;5022701;28;20520;-50
2021/04/01 11:20:56;;;;;;;5.50;2.90;;;28.50;64.00;;;;;;5034528;28;20057;-50
2021/04/01 11:23:25;;;;;;;3.38;2.83;;;28.80;65.50;;;;;;5034364;28;20025;-51
2021/04/01 11:25:54;;;;;;;2.90;2.17;;;28.10;64.50;;;;;;5033256;28;20034;-50
2021/04/01 11:28:40;;;;;;;4.60;2.72;;;28.30;65.70;;;;;;5034384;28;20025;-50
2021/04/01 11:31:07;;;;;;;3.80;2.88;;;28.80;63.40;;;;;;5033986;28;20496;-50
2021/04/01 11:33:35;;;;;;;4.22;2.60;;;28.90;63.00;;;;;;5048899;28;20038;-50
2021/04/01 11:36:09;;;;;;;4.30;3.08;;;28.40;64.10;;;;;;5034186;28;20030;-50
2021/04/01 11:39:24;;;;;;;7.72;3.17;;;27.90;65.20;;;;;;5033813;28;20041;-50
2021/04/01 11:41:30;;;;;;;3.90;2.92;;;28.20;65.90;;;;;;5031370;28;20087;-50
2021/04/01 11:43:57;;;;;;;4.30;2.80;;;;;;;;;;4982543;28;20124;-50
2021/04/01 11:46:31;;;;;;;6.10;2.97;;;28.00;95.10;;;;;;5031535;28;20030;-50
2021/04/01 11:48:58;;;;;;;3.97;3.03;;;;;;;;;;5031630;28;20025;-50
2021/04/01 11:51:29;;;;;;;4.53;2.50;;;;;;;;;;4998754;28;20048;-51
2021/04/01 11:53:55;;;;;;;4.88;2.83;;;28.90;88.60;;;;;;5031278;28;20607;-50
2021/04/01 11:56:22;;;;;;;5.20;2.90;;;29.00;62.30;;;;;;5031750;28;20033;-50
2021/04/01 11:58:49;;;;;;;5.03;2.88;;;28.80;62.60;;;;;;5031200;28;20112;-50
2021/04/01 12:03:58;;;;;;;3.60;2.42;;;28.90;63.60;;;;;;5031610;28;20099;-50
2021/04/01 12:06:25;;;;;;;3.63;2.40;;;;;;;;;;5031322;28;20397;-50
2021/04/01 12:08:51;;;;;;;4.22;2.58;;;29.20;60.20;;;;;;5030808;28;20037;-50
2021/04/01 12:11:17;;;;;;;3.92;2.38;;;29.00;60.50;;;;;;5015146;28;20030;-50
2021/04/01 12:13:43;;;;;;;4.30;2.75;;;28.80;60.20;;;;;;5048360;28;20052;-50
2021/04/01 12:16:21;;;;;;;3.75;2.58;;;28.10;60.80;;;;;;5033268;28;20029;-50
2021/04/01 12:18:47;;;;;;;4.57;2.90;;;27.90;60.90;;;;;;5046166;28;20499;-51
2021/04/01 12:21:14;;;;;;;3.97;2.42;;;28.00;61.10;;;;;;5034871;28;20549;-50
2021/04/01 12:23:52;;;;;;;3.65;2.63;;;28.40;61.70;;;;;;5051028;28;20037;-50
2021/04/01 12:26:19;;;;;;;3.38;2.30;;;27.80;60.70;;;;;;5053439;28;20033;-50
2021/04/01 12:29:03;;;;;;;2.63;1.95;;;28.30;61.80;;;;;;5053651;28;20532;-50
2021/04/01 12:31:41;;;;;;;3.45;2.38;;;28.50;59.70;;;;;;5053171;28;20074;-50
2021/04/01 12:34:11;;;;;;;6.45;2.50;;;28.60;60.20;;;;;;5053440;28;20021;-50
2021/04/01 12:36:41;;;;;;;4.60;2.78;;;28.90;61.10;;;;;;5068131;28;20059;-50
2021/04/01 12:39:10;;;;;;;4.80;2.25;;;28.60;61.30;;;;;;5075187;28;20031;-50
2021/04/01 12:41:38;;;;;;;3.53;2.50;;;28.50;60.60;;;;;;5024806;28;20495;-50
2021/04/01 12:44:04;;;;;;;4.90;2.40;;;28.80;59.70;;;;;;5075809;28;20033;-50
2021/04/01 12:46:42;;;;;;;4.32;2.83;;;29.20;65.00;;;;;;5057212;28;20029;-50
2021/04/01 12:49:14;;;;;;;4.70;2.20;;;28.90;63.00;;;;;;5057099;28;20025;-50
2021/04/01 12:51:57;;;;;;;3.72;2.00;;;29.10;62.90;;;;;;5076455;28;20090;-50
2021/04/01 12:54:29;;;;;;;2.85;2.22;;;28.10;64.10;;;;;;5077119;28;20032;-50
2021/04/01 12:57:17;;;;;;;3.08;2.08;;;27.50;63.30;;;;;;5077234;28;20028;-50
2021/04/01 12:59:47;;;;;;;4.40;2.65;;;;;;;;;;5076212;28;20025;-51
2021/04/01 13:02:15;;;;;;;4.78;2.00;;;28.60;68.00;;;;;;5076962;28;20363;-50
2021/04/01 13:04:43;;;;;;;5.35;3.42;;;28.00;70.30;;;;;;5076961;28;20068;-50
2021/04/01 13:12:14;;;;;;;3.47;2.10;;;;;;;;;;5076633;28;19908;-50
2021/04/01 13:14:41;;;;;;;2.60;1.77;;;28.90;92.20;;;;;;5057799;28;20040;-50
2021/04/01 13:17:07;;;;;;;3.20;2.10;;;27.60;68.70;;;;;;5041338;28;20033;-50
2021/04/01 13:19:33;;;;;;;3.80;2.22;;;27.90;73.60;;;;;;5091442;28;20113;-50
2021/04/01 13:26:58;;;;;;;4.40;2.05;;;27.20;59.90;;;;;;5076562;28;20032;-50
2021/04/01 13:29:27;;;;;;;2.55;2.08;;;26.60;61.00;;;;;;5076060;28;20475;-50
2021/04/01 13:31:59;;;;;;;5.03;2.47;;;27.60;61.00;;;;;;5076377;28;20525;-50
2021/04/01 13:34:29;;;;;;;2.78;1.92;;;;;;;;;;5074802;28;20032;-50
2021/04/01 13:39:30;;;;;;;4.38;2.40;;;;;;;;;;5076140;28;20384;-50
2021/04/01 13:44:32;;;;;;;6.22;2.97;;;28.50;70.50;;;;;;5040628;28;20544;-50
2021/04/01 13:46:59;;;;;;;3.92;2.53;;;;;;;;;;5057833;28;20090;-48
2021/04/01 13:49:28;;;;;;;2.90;1.90;;;;;;;;;;5050703;28;20033;-47
2021/04/01 13:52:00;;;;;;;2.55;1.95;;;;;;;;;;5055604;28;20033;-47
2021/04/01 13:59:57;;;;;;;2.55;1.70;;;;;;;;;;5055534;28;20040;-52
2021/04/01 14:10:43;;;;;;;4.35;1.50;;;;;;;;;;5074360;28;20067;-51
2021/04/01 14:13:10;;;;;;;5.93;2.35;;;;;;;;;;5075556;28;20070;-52
2021/04/01 14:15:38;;;;;;;4.25;2.25;;;;;;;;;;5075302;28;20434;-51
2021/04/01 14:18:05;;;;;;;2.45;1.83;;;;;;;;;;5073970;28;20132;-50
2021/04/01 14:20:31;;;;;;;4.03;2.42;;;;;;;;;;5056747;28;20036;-50
2021/04/01 14:22:57;;;;;;;4.20;1.60;;;;;;;;;;5073875;28;20546;-51
2021/04/01 14:25:45;;;;;;;2.45;1.65;;;;;;;;;;5075000;28;20031;-50
2021/04/01 14:28:13;;;;;;;3.80;1.50;;;;;;;;;;5074823;28;20066;-51
2021/04/01 14:30:39;;;;;;;3.30;2.28;;;;;;;;;;5023064;28;20076;-51
2021/04/01 14:33:05;;;;;;;2.47;1.40;;;;;;;;;;5056684;28;20054;-50
2021/04/01 14:35:33;;;;;;;3.22;1.90;;;;;;;;;;5074502;28;20541;-50
2021/04/01 14:38:01;;;;;;;2.13;1.38;;;;;;;;;;5074884;28;20034;-53
2021/04/01 14:40:32;;;;;;;4.78;2.20;;;;;;;;;;5075048;28;20025;-51
2021/04/01 14:43:01;;;;;;;3.28;1.85;;;;;;;;;;5075609;28;20116;-51
2021/04/01 14:45:28;;;;;;;3.05;1.70;;;;;;;;;;5056562;28;20403;-51
2021/04/01 14:47:54;;;;;;;9.38;3.10;;;;;;;;;;5074635;28;20032;-51
2021/04/01 14:50:21;;;;;;;2.33;1.30;;;;;;;;;;5074822;28;20463;-51
2021/04/01 14:52:47;;;;;;;1.80;1.38;;;;;;;;;;5073750;28;20136;-51
2021/04/01 14:55:16;;;;;;;3.47;1.90;;;;;;;;;;5074907;28;20060;-51
2021/04/01 14:57:42;;;;;;;1.90;1.52;;;;;;;;;;5056518;28;20522;-51
2021/04/01 15:00:11;;;;;;;2.25;1.80;;;27.70;90.80;;;;;;5074192;28;20032;-52
2021/04/01 15:02:39;;;;;;;2.55;1.50;;;27.70;64.90;;;;;;5004082;28;20043;-51
2021/04/01 15:05:07;;;;;;;2.40;1.50;;;27.40;54.40;;;;;;5074246;28;20059;-51
2021/04/01 15:07:34;;;;;;;3.65;2.03;;;27.40;55.60;;;;;;5006207;28;20040;-51
2021/04/01 15:10:14;;;;;;;2.47;1.73;;;27.30;56.00;;;;;;5055712;28;20472;-48
2021/04/01 15:12:42;;;;;;;2.47;1.50;;;27.50;56.00;;;;;;5073939;28;20387;-49
2021/04/01 15:15:09;;;;;;;5.70;2.58;;;27.40;56.10;;;;;;5067111;28;20021;-51
2021/04/01 15:17:35;;;;;;;3.28;1.85;;;27.40;56.20;;;;;;5046005;28;20048;-49
2021/04/01 15:20:04;;;;;;;2.55;1.80;;;27.30;55.80;;;;;;5054420;28;20032;-54
2021/04/01 15:22:30;;;;;;;2.22;1.63;;;27.10;55.60;;;;;;5005699;28;20067;-47